Airfield :
LOGIN :

Register | Disclaimer

   EN    FR    IT 

 










Legend :    VFR   Marginal VFR   IFR   Intensive IFR   Very Intensive IFR
Visi :
Ceiling :
>= 8 km
>= 3000ft
5 to 8 km
1000 to 3000 ft
1500m to 5 km
500 to 1000 ft
800 to 1500m
200 to 500 ft
< 800m
< 200 ft
Symbols :   Thunderstorms  Fog  Heavy snow  Heavy precipitations  Wind > 20 kt
SIGMETs :     Misc.  Thunderstorms  Icing  Turbulence  Mountain Waves  Volcanic Ashes






- Airport Elevation : 844 ft
- IATA code : OSR


LKMT - Ostrava-Mosnov

CURRENT METAR :
  • 090900Z 25009KT CAVOK 05/03 Q1006 NOSIG

EXPIRED METARs :
  • 090830Z 24007KT 7000 NSC 04/03 Q1006 NOSIG
  • 090800Z 23008KT 6000 FEW007 04/03 Q1006 NOSIG
  • 090730Z 21006KT 6000 FEW007 04/02 Q1006 NOSIG
  • 090700Z 28003KT 220V320 8000 OVC034 04/02 Q1006 NOSIG
  • 090630Z 24007KT 7000 OVC034 03/02 Q1005 NOSIG

TAF TAF LKMT
Valid from the 09 at 06:00 until the 10 at 12:00 UTC


090500Z 0906/1012 23014KT 9999 SCT025
TEMPO 0906/1012 -RA BKN012
TEMPO 0906/1006 24016G26KT
BECMG 1006/1008 36010KT



MET'MAP, your aeronautical weather chart ! - Copyright ORBIFLY December 2007 - Disclaimer

ORBIFLY MET'MAP TEAM :

Programming & Development : Alexandra Zaïnal
Concept & original design : Baudouin d'Aumeries
Assistance for programming : Marc-Olivier Méhu
Technical & hardware support : Manuel Goepfert

Contact : metmap@orbifly.com




SOURCES & CREDITS :

   NOAA